createdAt,value
2022-11-26T00:00:57.767Z,9.83
2022-11-26T00:05:59.444Z,9.81
2022-11-26T00:11:01.745Z,9.78
2022-11-26T00:16:03.752Z,9.75
2022-11-26T00:21:22.624Z,9.77
2022-11-26T00:26:25.642Z,9.77
2022-11-26T00:31:28.792Z,9.79
2022-11-26T00:36:33.032Z,9.80
2022-11-26T00:41:38.806Z,9.82
2022-11-26T00:46:40.610Z,9.81
2022-11-26T00:51:43.519Z,9.82
2022-11-26T00:56:46.264Z,9.83
2022-11-26T01:01:47.960Z,9.84
2022-11-26T01:06:51.048Z,9.84
2022-11-26T01:11:54.730Z,9.85
2022-11-26T01:16:57.420Z,9.86
2022-11-26T01:22:00.705Z,9.87
2022-11-26T01:27:02.389Z,9.86
2022-11-26T01:32:04.479Z,9.87
2022-11-26T01:37:16.248Z,9.87
2022-11-26T01:42:37.570Z,9.88
2022-11-26T01:47:40.493Z,9.89
2022-11-26T01:52:42.295Z,9.89
2022-11-26T01:57:46.046Z,9.90
2022-11-26T02:02:50.001Z,9.92
2022-11-26T02:07:55.396Z,9.94
2022-11-26T02:13:00.538Z,9.95
2022-11-26T02:18:07.140Z,9.96
2022-11-26T02:23:24.130Z,9.97
2022-11-26T02:28:38.558Z,9.96
2022-11-26T02:33:57.581Z,9.95
2022-11-26T02:39:11.984Z,9.94
2022-11-26T02:44:16.055Z,9.95
2022-11-26T02:49:21.593Z,9.95
2022-11-26T02:54:26.029Z,9.96
2022-11-26T02:59:28.429Z,9.97
2022-11-26T03:04:38.115Z,9.98
2022-11-26T03:10:01.363Z,9.97
2022-11-26T03:15:03.278Z,9.96
2022-11-26T03:20:05.928Z,9.97
2022-11-26T03:25:08.449Z,9.97
2022-11-26T03:30:10.833Z,9.99
2022-11-26T03:35:12.545Z,10.00
2022-11-26T03:40:16.868Z,10.01
2022-11-26T03:45:18.762Z,10.03
2022-11-26T03:50:20.505Z,10.03
2022-11-26T03:55:22.128Z,10.01
2022-11-26T04:00:24.146Z,10.02
2022-11-26T04:05:25.784Z,10.02
2022-11-26T04:10:27.489Z,10.02
2022-11-26T04:15:30.184Z,10.02
2022-11-26T04:20:31.823Z,10.01
2022-11-26T04:25:33.555Z,10.03
2022-11-26T04:30:35.328Z,10.03
2022-11-26T04:35:38.258Z,10.02
2022-11-26T04:40:39.900Z,9.98
2022-11-26T04:45:41.745Z,9.94
2022-11-26T04:50:43.374Z,9.94
2022-11-26T04:55:45.074Z,9.93
2022-11-26T05:00:50.709Z,9.89
2022-11-26T05:05:54.140Z,9.86
2022-11-26T05:10:55.832Z,9.85
2022-11-26T05:15:57.448Z,9.82
2022-11-26T05:20:59.127Z,9.80
2022-11-26T05:26:00.829Z,9.80
2022-11-26T05:31:03.725Z,9.82
2022-11-26T05:36:05.530Z,9.83
2022-11-26T05:41:07.226Z,9.83
2022-11-26T05:46:09.704Z,9.86
2022-11-26T05:51:11.788Z,9.83
2022-11-26T05:56:13.828Z,9.83
2022-11-26T06:01:15.474Z,9.83
2022-11-26T06:06:17.296Z,9.83
2022-11-26T06:11:19.026Z,9.85
2022-11-26T06:16:20.845Z,9.88
2022-11-26T06:21:22.532Z,9.90
2022-11-26T06:26:24.339Z,9.90
2022-11-26T06:31:26.128Z,9.90
2022-11-26T06:36:27.798Z,9.93
2022-11-26T06:41:29.926Z,9.91
2022-11-26T06:46:34.226Z,9.93
2022-11-26T06:51:35.934Z,9.95
2022-11-26T06:56:37.629Z,9.96
2022-11-26T07:01:39.985Z,9.97
2022-11-26T07:06:41.841Z,9.98
2022-11-26T07:11:43.569Z,9.96
2022-11-26T07:16:45.178Z,9.92
2022-11-26T07:21:47.118Z,9.87
2022-11-26T07:26:48.829Z,9.86
2022-11-26T07:31:50.712Z,9.86
2022-11-26T07:36:57.756Z,9.88
2022-11-26T07:41:59.750Z,9.87
2022-11-26T07:47:02.348Z,9.90
2022-11-26T07:52:04.244Z,9.92
2022-11-26T07:57:06.152Z,9.96
2022-11-26T08:02:12.705Z,10.00
2022-11-26T08:07:20.134Z,10.03
2022-11-26T08:12:26.347Z,10.04
2022-11-26T08:17:28.459Z,10.05
2022-11-26T08:22:30.632Z,10.05
2022-11-26T08:27:33.235Z,10.10
2022-11-26T08:32:35.637Z,10.13
2022-11-26T08:37:37.228Z,10.15
2022-11-26T08:42:38.866Z,10.16
2022-11-26T08:47:40.433Z,10.16
2022-11-26T08:52:45.183Z,10.15
2022-11-26T08:57:47.337Z,10.13
2022-11-26T09:02:49.113Z,10.06
2022-11-26T09:07:50.843Z,10.01
2022-11-26T09:12:52.636Z,10.01
2022-11-26T09:17:54.866Z,9.99
2022-11-26T09:22:56.537Z,9.97
2022-11-26T09:27:58.161Z,9.96
2022-11-26T09:32:59.848Z,9.90
2022-11-26T09:38:01.483Z,9.85
2022-11-26T09:43:13.967Z,9.85
2022-11-26T09:48:23.203Z,9.87
2022-11-26T09:53:30.924Z,9.91
2022-11-26T09:59:00.027Z,9.96
2022-11-26T10:04:02.141Z,10.03
2022-11-26T10:09:24.959Z,10.08
2022-11-26T10:14:37.924Z,10.14
2022-11-26T10:19:42.692Z,10.19
2022-11-26T10:24:44.570Z,10.28
2022-11-26T10:29:50.964Z,10.38
2022-11-26T10:34:54.983Z,10.48
2022-11-26T10:40:17.005Z,10.55
2022-11-26T10:45:24.973Z,10.60
2022-11-26T10:55:49.459Z,10.65
2022-11-26T11:00:51.060Z,10.65
2022-11-26T11:06:30.453Z,10.70
2022-11-26T11:11:32.343Z,10.76
2022-11-26T11:16:44.195Z,10.87
2022-11-26T11:21:48.399Z,10.90
2022-11-26T11:26:55.391Z,10.97
2022-11-26T11:31:57.924Z,10.93
2022-11-26T11:37:14.851Z,10.93
2022-11-26T11:42:29.290Z,10.85
2022-11-26T11:47:44.173Z,10.80
2022-11-26T11:52:48.869Z,10.76
2022-11-26T11:58:28.196Z,10.72
2022-11-26T12:03:50.542Z,10.71
2022-11-26T12:09:04.464Z,10.71
2022-11-26T12:14:20.957Z,10.73
2022-11-26T12:19:39.212Z,10.67
2022-11-26T12:24:54.991Z,10.60
2022-11-26T12:30:06.308Z,10.55
2022-11-26T12:35:15.809Z,10.51
2022-11-26T12:40:30.454Z,10.51
2022-11-26T12:45:35.126Z,10.48
2022-11-26T12:50:43.423Z,10.48
2022-11-26T12:56:04.662Z,10.51
2022-11-26T13:01:06.493Z,10.53
2022-11-26T13:06:24.539Z,10.56
2022-11-26T13:11:34.979Z,10.55
2022-11-26T13:16:51.663Z,10.49
2022-11-26T13:22:20.547Z,10.47
2022-11-26T13:27:57.155Z,10.40
2022-11-26T13:33:10.967Z,10.40
2022-11-26T13:38:32.391Z,10.45
2022-11-26T13:43:56.106Z,10.51
2022-11-26T13:49:03.887Z,10.54
2022-11-26T13:54:20.953Z,10.61
2022-11-26T13:59:28.587Z,10.65
2022-11-26T14:04:33.500Z,10.66
2022-11-26T14:09:47.595Z,10.68
2022-11-26T14:14:50.759Z,10.73
2022-11-26T14:19:55.820Z,10.72
2022-11-26T14:25:00.553Z,10.70
2022-11-26T14:30:08.654Z,10.63
2022-11-26T14:35:34.632Z,10.53
2022-11-26T14:40:38.536Z,10.48
2022-11-26T14:45:40.669Z,10.45
2022-11-26T14:50:43.219Z,10.39
2022-11-26T14:55:46.275Z,10.30
2022-11-26T15:01:29.248Z,10.24
2022-11-26T15:06:38.264Z,10.17
2022-11-26T15:12:03.713Z,10.11
2022-11-26T15:17:06.279Z,10.05
2022-11-26T15:22:19.499Z,9.99
2022-11-26T15:27:28.564Z,9.97
2022-11-26T15:32:32.888Z,9.93
2022-11-26T15:37:34.557Z,9.91
2022-11-26T15:42:36.513Z,9.85
2022-11-26T15:47:38.441Z,9.80
2022-11-26T15:52:42.913Z,9.76
2022-11-26T15:57:50.088Z,9.75
2022-11-26T16:02:52.322Z,9.72
2022-11-26T16:08:02.966Z,9.65
2022-11-26T16:13:11.878Z,9.59
2022-11-26T16:18:21.620Z,9.53
2022-11-26T16:23:29.629Z,9.48
2022-11-26T16:28:32.064Z,9.34
2022-11-26T16:33:33.938Z,9.26
2022-11-26T16:38:35.532Z,9.21
2022-11-26T16:43:37.131Z,9.16
2022-11-26T16:48:39.258Z,9.11
2022-11-26T16:53:41.250Z,9.08
2022-11-26T16:58:43.305Z,9.02
2022-11-26T17:03:45.751Z,8.95
2022-11-26T17:08:49.881Z,8.89
2022-11-26T17:13:52.304Z,8.83
2022-11-26T17:18:54.086Z,8.80
2022-11-26T17:23:55.730Z,8.75
2022-11-26T17:28:57.469Z,8.68
2022-11-26T17:33:59.528Z,8.63
2022-11-26T17:39:01.465Z,8.57
2022-11-26T17:44:03.155Z,8.51
2022-11-26T17:49:04.959Z,8.40
2022-11-26T17:54:06.586Z,8.32
2022-11-26T17:59:08.355Z,8.28
2022-11-26T18:04:09.942Z,8.25
2022-11-26T18:09:11.751Z,8.22
2022-11-26T18:14:14.429Z,8.20
2022-11-26T18:19:17.765Z,8.16
2022-11-26T18:24:19.564Z,8.12
2022-11-26T18:29:21.605Z,8.06
2022-11-26T18:34:23.854Z,8.03
2022-11-26T18:39:25.854Z,8.00
2022-11-26T18:44:30.724Z,7.98
2022-11-26T18:49:33.576Z,7.94
2022-11-26T18:54:35.184Z,7.90
2022-11-26T18:59:37.324Z,7.86
2022-11-26T19:04:39.262Z,7.84
2022-11-26T19:09:41.698Z,7.82
2022-11-26T19:14:46.890Z,7.80
2022-11-26T19:19:48.582Z,7.78
2022-11-26T19:24:50.357Z,7.77
2022-11-26T19:29:52.293Z,7.75
2022-11-26T19:34:54.661Z,7.75
2022-11-26T19:39:56.918Z,7.75
2022-11-26T19:44:58.607Z,7.73
2022-11-26T19:50:00.297Z,7.69
2022-11-26T19:55:02.574Z,7.66
2022-11-26T20:00:05.260Z,7.63
2022-11-26T20:05:09.007Z,7.57
2022-11-26T20:10:11.956Z,7.52
2022-11-26T20:15:13.698Z,7.44
2022-11-26T20:20:15.595Z,7.38
2022-11-26T20:25:17.346Z,7.36
2022-11-26T20:30:20.321Z,7.33
2022-11-26T20:35:24.226Z,7.30
2022-11-26T20:40:26.205Z,7.25
2022-11-26T20:45:29.186Z,7.17
2022-11-26T20:50:31.354Z,7.10
2022-11-26T20:55:33.163Z,7.03
2022-11-26T21:00:35.744Z,6.97
2022-11-26T21:05:39.136Z,6.92
2022-11-26T21:10:41.312Z,6.86
2022-11-26T21:15:47.793Z,6.83
2022-11-26T21:20:49.510Z,6.78
2022-11-26T21:25:51.667Z,6.72
2022-11-26T21:30:54.257Z,6.68
2022-11-26T21:35:56.470Z,6.64
2022-11-26T21:41:03.674Z,6.62
2022-11-26T21:46:07.089Z,6.54
2022-11-26T21:51:12.109Z,6.48
2022-11-26T21:56:20.502Z,6.45
2022-11-26T22:01:27.257Z,6.43
2022-11-26T22:06:29.681Z,6.42
2022-11-26T22:11:36.073Z,6.40
2022-11-26T22:16:37.900Z,6.37
2022-11-26T22:21:41.739Z,6.35
2022-11-26T22:26:44.126Z,6.33
2022-11-26T22:31:48.247Z,6.29
2022-11-26T22:36:50.032Z,6.28
2022-11-26T22:41:51.638Z,6.26
2022-11-26T22:46:53.259Z,6.23
2022-11-26T22:51:54.973Z,6.20
2022-11-26T22:56:57.542Z,6.13
2022-11-26T23:01:59.745Z,6.08
2022-11-26T23:07:01.524Z,6.02
2022-11-26T23:12:03.385Z,5.96
2022-11-26T23:17:06.461Z,5.92
2022-11-26T23:22:08.182Z,5.88
2022-11-26T23:27:10.421Z,5.87
2022-11-26T23:32:12.268Z,5.88
2022-11-26T23:37:14.107Z,5.92
2022-11-26T23:42:17.669Z,5.96
2022-11-26T23:47:19.288Z,6.02
2022-11-26T23:52:20.949Z,6.06
2022-11-26T23:57:22.735Z,6.11
